Time;durP1;ratioP1;P1;durP2;ratioP2;P2;SDS_P1;SDS_P2;PMS_P1;PMS_P2;Temp;Humidity;BMP_temperature;BMP_pressure;BME280_temperature;BME280_humidity;BME280_pressure;Samples;Min_cycle;Max_cycle;Signal;HPM_P1;HPM_P2
2023/12/12 00:01:20;;;;;;;3.35;1.48;;;8.60;99.90;;;;;;5070238;28;20020;-86
2023/12/12 00:03:46;;;;;;;1.58;1.13;;;8.60;99.90;;;;;;5066350;28;20117;-86
2023/12/12 00:06:11;;;;;;;3.13;1.27;;;8.60;99.90;;;;;;5072758;28;20490;-86
2023/12/12 00:08:37;;;;;;;1.77;1.23;;;8.60;99.90;;;;;;5074625;28;20035;-85
2023/12/12 00:11:04;;;;;;;1.40;1.30;;;8.60;99.90;;;;;;5071536;28;20028;-85
2023/12/12 00:13:30;;;;;;;5.45;1.33;;;8.60;99.90;;;;;;5073143;28;20103;-88
2023/12/12 00:15:56;;;;;;;1.25;1.10;;;8.60;99.90;;;;;;5079141;28;20453;-86
2023/12/12 00:18:21;;;;;;;1.38;1.10;;;8.60;99.90;;;;;;5072980;28;20074;-85
2023/12/12 00:20:47;;;;;;;1.48;1.33;;;8.60;99.90;;;;;;5076788;28;20433;-84
2023/12/12 00:23:12;;;;;;;1.50;1.38;;;8.60;99.90;;;;;;5071796;28;20032;-85
2023/12/12 00:25:38;;;;;;;3.22;1.50;;;8.60;99.90;;;;;;5076309;28;20124;-85
2023/12/12 00:28:04;;;;;;;2.33;1.42;;;8.60;99.90;;;;;;5072527;28;20027;-84
2023/12/12 00:30:30;;;;;;;3.05;1.25;;;8.60;99.90;;;;;;5068608;28;20021;-87
2023/12/12 00:32:55;;;;;;;2.28;1.42;;;8.60;99.90;;;;;;5072241;28;20028;-87
2023/12/12 00:35:21;;;;;;;2.63;0.93;;;8.60;99.90;;;;;;5067377;28;20034;-85
2023/12/12 00:37:46;;;;;;;2.17;1.27;;;8.60;99.90;;;;;;5082449;28;20043;-86
2023/12/12 00:40:12;;;;;;;1.35;0.90;;;8.60;99.90;;;;;;5069973;28;20119;-86
2023/12/12 00:42:37;;;;;;;1.88;1.20;;;8.60;99.90;;;;;;5068988;28;20044;-86
2023/12/12 00:45:03;;;;;;;5.38;1.23;;;8.60;99.90;;;;;;5075780;28;20077;-87
2023/12/12 00:47:30;;;;;;;1.77;1.08;;;8.60;99.90;;;;;;5072734;28;20158;-86
2023/12/12 00:49:55;;;;;;;3.03;1.20;;;8.60;99.90;;;;;;5073896;28;20085;-86
2023/12/12 00:52:21;;;;;;;1.85;1.30;;;8.60;99.90;;;;;;5068208;28;20386;-85
2023/12/12 00:54:46;;;;;;;5.55;1.10;;;8.60;99.90;;;;;;5069882;28;20511;-86
2023/12/12 00:57:12;;;;;;;5.00;1.55;;;8.60;99.90;;;;;;5075255;28;20028;-85
2023/12/12 00:59:37;;;;;;;5.38;1.35;;;8.60;99.90;;;;;;5070467;28;20025;-85
2023/12/12 01:02:03;;;;;;;1.85;1.00;;;8.60;99.90;;;;;;5075964;28;20025;-86
2023/12/12 01:04:33;;;;;;;3.22;1.50;;;8.60;99.90;;;;;;5069903;28;20059;-86
2023/12/12 01:06:59;;;;;;;9.88;1.52;;;8.60;99.90;;;;;;5071478;28;20017;-85
2023/12/12 01:09:24;;;;;;;1.55;1.20;;;8.60;99.90;;;;;;5077770;28;20021;-85
2023/12/12 01:11:50;;;;;;;2.38;1.05;;;8.60;99.90;;;;;;5067266;28;20032;-86
2023/12/12 01:14:15;;;;;;;3.33;1.30;;;8.60;99.90;;;;;;5072201;28;20114;-85
2023/12/12 01:16:41;;;;;;;3.03;1.17;;;8.70;99.90;;;;;;5067815;28;20052;-86
2023/12/12 01:19:06;;;;;;;3.50;1.17;;;8.60;99.90;;;;;;5071810;28;20489;-85
2023/12/12 01:21:32;;;;;;;2.22;1.20;;;8.60;99.90;;;;;;5067041;28;20032;-85
2023/12/12 01:23:58;;;;;;;0.90;0.90;;;8.60;99.90;;;;;;5077260;28;20024;-87
2023/12/12 01:26:23;;;;;;;1.42;1.15;;;8.60;99.90;;;;;;5080269;28;20027;-87
2023/12/12 01:28:50;;;;;;;2.92;1.38;;;8.60;99.90;;;;;;5072888;28;20016;-86
2023/12/12 01:31:16;;;;;;;2.33;1.58;;;8.60;99.90;;;;;;5068580;28;20032;-86
2023/12/12 01:33:43;;;;;;;2.25;1.40;;;8.60;99.90;;;;;;5073315;28;20434;-85
2023/12/12 01:36:09;;;;;;;2.20;1.17;;;8.70;99.90;;;;;;5074563;28;20047;-85
2023/12/12 01:38:35;;;;;;;1.90;1.40;;;8.60;99.90;;;;;;5074730;28;20021;-86
2023/12/12 01:41:00;;;;;;;2.70;1.52;;;8.60;99.90;;;;;;5076885;28;20485;-85
2023/12/12 01:43:28;;;;;;;2.42;1.63;;;8.60;99.90;;;;;;5070162;28;20107;-85
2023/12/12 01:45:56;;;;;;;2.50;1.30;;;8.60;99.90;;;;;;5074077;28;20056;-87
2023/12/12 01:48:23;;;;;;;3.97;1.55;;;8.60;99.90;;;;;;5072592;28;20021;-84
2023/12/12 01:50:49;;;;;;;2.55;1.60;;;8.60;99.90;;;;;;5074224;28;20391;-86
2023/12/12 01:53:18;;;;;;;2.25;1.55;;;8.60;99.90;;;;;;5072924;28;20017;-85
2023/12/12 01:55:44;;;;;;;1.73;1.20;;;8.60;99.90;;;;;;5068952;28;20033;-87
2023/12/12 01:58:10;;;;;;;2.28;1.40;;;8.70;99.90;;;;;;5071293;28;20031;-87
2023/12/12 02:00:36;;;;;;;1.27;1.00;;;8.60;99.90;;;;;;5078536;28;20077;-86
2023/12/12 02:03:02;;;;;;;1.27;1.10;;;8.60;99.90;;;;;;5080499;28;20110;-87
2023/12/12 02:05:29;;;;;;;2.72;1.67;;;8.60;99.90;;;;;;5082239;28;20122;-85
2023/12/12 02:07:57;;;;;;;2.70;1.35;;;8.60;99.90;;;;;;5074223;28;20024;-85
2023/12/12 02:10:23;;;;;;;2.75;1.25;;;8.60;99.90;;;;;;5068315;28;20131;-87
2023/12/12 02:12:48;;;;;;;3.63;1.13;;;8.60;99.90;;;;;;5074586;28;20584;-85
2023/12/12 02:15:17;;;;;;;1.40;1.30;;;8.60;99.90;;;;;;5075009;28;20033;-86
2023/12/12 02:17:43;;;;;;;4.28;1.40;;;8.60;99.90;;;;;;5069682;28;20027;-85
2023/12/12 02:20:09;;;;;;;3.90;1.30;;;8.60;99.90;;;;;;5071990;28;20033;-86
2023/12/12 02:22:35;;;;;;;2.35;1.38;;;8.60;99.90;;;;;;5070373;28;20033;-85
2023/12/12 02:25:00;;;;;;;1.98;1.13;;;8.60;99.90;;;;;;5072109;28;20031;-88
2023/12/12 02:27:26;;;;;;;1.58;1.42;;;8.60;99.90;;;;;;5070711;28;20110;-85
2023/12/12 02:29:52;;;;;;;1.63;1.35;;;8.60;99.90;;;;;;5073788;28;20028;-87
2023/12/12 02:32:19;;;;;;;2.03;1.30;;;8.60;99.90;;;;;;5065900;28;20494;-86
2023/12/12 02:34:44;;;;;;;2.20;1.48;;;8.60;99.90;;;;;;5074002;28;20035;-86
2023/12/12 02:37:10;;;;;;;3.72;1.40;;;8.60;99.90;;;;;;5072235;28;20028;-87
2023/12/12 02:39:35;;;;;;;1.45;1.30;;;8.60;99.90;;;;;;5074231;28;20119;-86
2023/12/12 02:42:01;;;;;;;1.40;1.30;;;8.60;99.90;;;;;;5070791;28;20546;-86
2023/12/12 02:44:26;;;;;;;4.20;1.45;;;8.60;99.90;;;;;;5062430;28;20028;-86
2023/12/12 02:46:52;;;;;;;4.00;1.90;;;8.60;99.90;;;;;;5069107;28;20119;-84
2023/12/12 02:49:17;;;;;;;2.70;1.60;;;8.60;99.90;;;;;;5064580;28;20016;-86
2023/12/12 02:51:43;;;;;;;5.30;1.85;;;8.60;99.90;;;;;;5073411;28;20044;-86
2023/12/12 02:54:08;;;;;;;3.22;1.58;;;8.60;99.90;;;;;;5064010;28;20103;-85
2023/12/12 02:56:34;;;;;;;2.38;1.40;;;8.60;99.90;;;;;;5064762;28;20048;-86
2023/12/12 02:59:00;;;;;;;1.85;1.48;;;8.60;99.90;;;;;;5074957;28;20064;-87
2023/12/12 03:01:26;;;;;;;1.38;1.25;;;8.60;99.90;;;;;;5074716;28;20023;-86
2023/12/12 03:03:52;;;;;;;3.10;1.52;;;8.60;99.90;;;;;;5068368;28;20108;-86
2023/12/12 03:06:17;;;;;;;2.45;1.20;;;8.60;99.90;;;;;;5069947;28;20112;-86
2023/12/12 03:08:43;;;;;;;2.20;1.52;;;8.60;99.90;;;;;;5074313;28;20056;-85
2023/12/12 03:11:09;;;;;;;3.40;1.50;;;8.60;99.90;;;;;;5070846;28;20016;-85
2023/12/12 03:13:34;;;;;;;7.05;1.73;;;8.60;99.90;;;;;;5069712;28;20073;-86
2023/12/12 03:16:00;;;;;;;4.40;1.85;;;8.60;99.90;;;;;;5075677;28;20035;-87
2023/12/12 03:18:25;;;;;;;1.85;1.55;;;8.60;99.90;;;;;;5068041;28;20032;-85
2023/12/12 03:20:51;;;;;;;5.95;1.90;;;8.60;99.90;;;;;;5069750;28;20100;-84
2023/12/12 03:23:16;;;;;;;3.65;1.88;;;8.60;99.90;;;;;;5064567;28;20028;-85
2023/12/12 03:25:42;;;;;;;3.00;1.63;;;8.60;99.90;;;;;;5074433;28;20043;-85
2023/12/12 03:28:07;;;;;;;2.75;1.50;;;8.60;99.90;;;;;;5075359;28;20024;-88
2023/12/12 03:30:33;;;;;;;2.55;1.60;;;8.60;99.90;;;;;;5068781;28;20025;-86
2023/12/12 03:32:58;;;;;;;2.85;1.75;;;8.60;99.90;;;;;;5069323;28;20024;-87
2023/12/12 03:35:24;;;;;;;3.90;1.80;;;8.60;99.90;;;;;;5066857;28;20029;-86
2023/12/12 03:37:49;;;;;;;4.57;1.60;;;8.60;99.90;;;;;;5076335;28;20016;-88
2023/12/12 03:40:15;;;;;;;5.57;2.10;;;8.60;99.90;;;;;;5074892;28;20149;-86
2023/12/12 03:42:41;;;;;;;4.32;2.10;;;8.60;99.90;;;;;;5067981;28;20024;-86
2023/12/12 03:45:07;;;;;;;5.93;1.92;;;8.60;99.90;;;;;;5069661;28;20516;-85
2023/12/12 03:47:32;;;;;;;4.55;1.80;;;8.60;99.90;;;;;;5067120;28;20554;-85
2023/12/12 03:49:58;;;;;;;2.25;1.80;;;8.60;99.90;;;;;;5071399;28;20104;-85
2023/12/12 03:52:23;;;;;;;1.98;1.42;;;8.60;99.90;;;;;;5074029;28;20107;-86
2023/12/12 03:54:49;;;;;;;2.67;1.83;;;8.60;99.90;;;;;;5066306;28;20487;-85
2023/12/12 03:57:14;;;;;;;2.03;1.58;;;8.60;99.90;;;;;;5060904;28;20494;-85
2023/12/12 03:59:40;;;;;;;1.95;1.67;;;8.60;99.90;;;;;;5056239;28;20079;-86
2023/12/12 04:02:05;;;;;;;3.63;1.80;;;8.60;99.90;;;;;;5068556;28;20062;-86
2023/12/12 04:04:31;;;;;;;1.90;1.73;;;8.60;99.90;;;;;;5075027;28;20081;-85
2023/12/12 04:06:57;;;;;;;1.77;1.52;;;8.60;99.90;;;;;;5073443;28;20021;-87
2023/12/12 04:09:22;;;;;;;2.63;2.00;;;8.60;99.90;;;;;;5076376;28;20016;-85
2023/12/12 04:11:48;;;;;;;2.95;1.98;;;8.60;99.90;;;;;;5069890;28;20063;-85
2023/12/12 04:14:13;;;;;;;2.35;1.60;;;8.60;99.90;;;;;;5077061;28;20735;-85
2023/12/12 04:16:39;;;;;;;2.40;2.03;;;8.60;99.90;;;;;;5074266;28;20016;-87
2023/12/12 04:19:05;;;;;;;3.47;1.95;;;8.60;99.90;;;;;;5072199;28;20028;-86
2023/12/12 04:21:30;;;;;;;2.38;2.00;;;8.60;99.90;;;;;;5061339;28;20036;-87
2023/12/12 04:23:56;;;;;;;3.67;2.17;;;8.60;99.90;;;;;;5072888;28;20035;-86
2023/12/12 04:26:22;;;;;;;3.20;2.40;;;8.60;99.90;;;;;;5069864;28;20020;-87
2023/12/12 04:28:47;;;;;;;3.65;2.33;;;8.60;99.90;;;;;;5073559;28;20029;-85
2023/12/12 04:31:14;;;;;;;3.17;2.30;;;8.60;99.90;;;;;;5079135;28;20220;-86
2023/12/12 04:33:40;;;;;;;3.85;2.50;;;8.60;99.90;;;;;;5063895;28;20025;-87
2023/12/12 04:36:06;;;;;;;3.30;2.47;;;8.60;99.90;;;;;;5069076;28;20135;-85
2023/12/12 04:38:33;;;;;;;4.63;2.65;;;8.60;99.90;;;;;;5074584;28;20021;-85
2023/12/12 04:41:03;;;;;;;5.75;2.50;;;8.60;99.90;;;;;;5072824;28;20113;-84
2023/12/12 04:43:29;;;;;;;5.90;3.13;;;8.60;99.90;;;;;;5068857;28;20118;-85
2023/12/12 04:45:55;;;;;;;6.00;3.13;;;8.60;99.90;;;;;;5072956;28;20111;-86
2023/12/12 04:48:21;;;;;;;7.63;3.67;;;8.60;99.90;;;;;;5059986;28;20048;-87
2023/12/12 04:50:46;;;;;;;5.90;3.70;;;8.60;99.90;;;;;;5065030;28;20503;-85
2023/12/12 04:53:12;;;;;;;5.50;3.50;;;8.60;99.90;;;;;;5078000;28;20509;-86
2023/12/12 04:55:37;;;;;;;7.75;4.20;;;8.70;99.90;;;;;;5072609;28;20089;-87
2023/12/12 04:58:03;;;;;;;6.22;3.95;;;8.60;99.90;;;;;;5066944;28;20074;-85
2023/12/12 05:00:28;;;;;;;6.20;4.28;;;8.60;99.90;;;;;;5070829;28;20056;-86
2023/12/12 05:02:54;;;;;;;8.13;4.38;;;8.60;99.90;;;;;;5073154;28;20024;-84
2023/12/12 05:05:19;;;;;;;7.25;3.97;;;8.60;99.90;;;;;;5073553;28;20027;-88
2023/12/12 05:07:45;;;;;;;8.60;4.53;;;8.60;99.90;;;;;;5074136;28;20021;-86
2023/12/12 05:10:10;;;;;;;14.20;4.68;;;8.60;99.90;;;;;;5074258;28;20027;-87
2023/12/12 05:12:36;;;;;;;6.95;4.00;;;8.70;99.90;;;;;;5072004;28;20119;-85
2023/12/12 05:15:02;;;;;;;7.82;4.50;;;8.60;99.90;;;;;;5063876;28;20100;-86
2023/12/12 05:17:27;;;;;;;7.97;4.22;;;8.60;99.90;;;;;;5073409;28;20694;-86
2023/12/12 05:19:53;;;;;;;9.23;4.45;;;8.70;99.90;;;;;;5068798;28;20090;-86
2023/12/12 05:22:18;;;;;;;9.20;4.38;;;8.60;99.90;;;;;;5066283;28;20145;-87
2023/12/12 05:24:44;;;;;;;8.52;4.18;;;8.60;99.90;;;;;;5065077;28;20029;-86
2023/12/12 05:27:10;;;;;;;8.68;4.05;;;8.60;99.90;;;;;;5072244;28;20020;-87
2023/12/12 05:29:35;;;;;;;8.52;5.07;;;8.60;99.90;;;;;;5065726;28;20095;-87
2023/12/12 05:32:01;;;;;;;9.75;5.15;;;8.60;99.90;;;;;;5075178;28;20063;-87
2023/12/12 05:34:27;;;;;;;8.15;5.25;;;8.60;99.90;;;;;;5078090;28;20031;-85
2023/12/12 05:36:53;;;;;;;10.65;4.95;;;8.60;99.90;;;;;;5062852;28;20025;-87
2023/12/12 05:39:18;;;;;;;9.05;4.78;;;8.60;99.90;;;;;;5072648;28;20439;-85
2023/12/12 05:41:44;;;;;;;8.82;5.30;;;8.60;99.90;;;;;;5073738;28;20498;-87
2023/12/12 05:44:09;;;;;;;10.82;6.03;;;8.60;99.90;;;;;;5078463;28;20378;-86
2023/12/12 05:46:35;;;;;;;8.35;5.05;;;8.60;99.90;;;;;;5077894;28;20027;-86
2023/12/12 05:49:00;;;;;;;9.48;5.10;;;8.60;99.90;;;;;;5070295;28;20017;-87
2023/12/12 05:51:26;;;;;;;7.88;5.00;;;8.60;99.90;;;;;;5071975;28;20020;-84
2023/12/12 05:53:52;;;;;;;8.55;4.93;;;8.60;99.90;;;;;;5069761;28;20475;-84
2023/12/12 05:56:18;;;;;;;7.25;4.65;;;8.60;99.90;;;;;;5075751;28;20035;-87
2023/12/12 05:58:44;;;;;;;10.52;5.03;;;8.60;99.90;;;;;;5074855;28;20017;-85
2023/12/12 06:01:10;;;;;;;9.48;5.25;;;8.60;99.90;;;;;;5070209;28;20023;-88
2023/12/12 06:03:35;;;;;;;8.07;5.22;;;8.60;99.90;;;;;;5072234;28;20489;-85
2023/12/12 06:06:07;;;;;;;10.50;5.88;;;8.60;99.90;;;;;;5084393;28;20023;-87
2023/12/12 06:08:33;;;;;;;8.30;5.15;;;8.70;99.90;;;;;;5074682;28;20016;-87
2023/12/12 06:10:59;;;;;;;8.48;5.13;;;8.60;99.90;;;;;;5077931;28;20025;-86
2023/12/12 06:13:24;;;;;;;11.07;5.00;;;8.70;99.90;;;;;;5071327;28;20024;-87
2023/12/12 06:15:50;;;;;;;8.98;5.15;;;8.60;99.90;;;;;;5075678;28;20028;-86
2023/12/12 06:18:15;;;;;;;11.82;5.10;;;8.60;99.90;;;;;;5072457;28;20024;-86
2023/12/12 06:20:41;;;;;;;7.55;5.03;;;8.60;99.90;;;;;;5078839;28;20032;-87
2023/12/12 06:23:08;;;;;;;11.18;5.53;;;8.60;99.90;;;;;;5078957;28;20024;-86
2023/12/12 06:25:34;;;;;;;10.23;5.63;;;8.60;99.90;;;;;;5078666;28;20078;-86
2023/12/12 06:27:59;;;;;;;11.02;6.00;;;8.60;99.90;;;;;;5073945;28;20020;-86
2023/12/12 06:30:25;;;;;;;11.70;6.25;;;8.60;99.90;;;;;;5080120;28;20024;-87
2023/12/12 06:32:50;;;;;;;11.18;5.55;;;8.60;99.90;;;;;;5080847;28;20021;-86
2023/12/12 06:35:16;;;;;;;11.15;6.13;;;8.60;99.90;;;;;;5078717;28;20052;-87
2023/12/12 06:37:42;;;;;;;10.63;5.78;;;8.60;99.90;;;;;;5078197;28;20021;-85
2023/12/12 06:40:09;;;;;;;10.00;5.38;;;8.60;99.90;;;;;;5074995;28;20012;-86
2023/12/12 06:42:35;;;;;;;7.70;5.28;;;8.70;99.90;;;;;;5070785;28;20067;-87
2023/12/12 06:45:01;;;;;;;11.10;5.47;;;8.60;99.90;;;;;;5077079;28;20119;-86
2023/12/12 06:47:26;;;;;;;12.85;5.72;;;8.60;99.90;;;;;;5072269;28;20445;-86
2023/12/12 06:49:52;;;;;;;8.63;5.28;;;8.60;99.90;;;;;;5073596;28;20021;-87
2023/12/12 06:52:17;;;;;;;10.35;6.03;;;8.60;99.90;;;;;;5074626;28;20024;-87
2023/12/12 06:54:43;;;;;;;9.80;5.05;;;8.60;99.90;;;;;;5075574;28;20029;-84
2023/12/12 06:57:08;;;;;;;10.25;5.63;;;8.60;99.90;;;;;;5073720;28;20111;-85
2023/12/12 06:59:34;;;;;;;9.05;5.43;;;8.60;99.90;;;;;;5073486;28;20077;-85
2023/12/12 07:01:59;;;;;;;10.07;5.60;;;8.60;99.90;;;;;;5069002;28;20024;-85
2023/12/12 07:04:25;;;;;;;11.93;5.35;;;8.60;99.90;;;;;;5071284;28;20024;-86
2023/12/12 07:06:50;;;;;;;9.48;5.65;;;8.60;99.90;;;;;;5079941;28;20027;-87
2023/12/12 07:09:16;;;;;;;10.88;5.03;;;8.60;99.90;;;;;;5075995;28;20425;-85
2023/12/12 07:11:43;;;;;;;9.23;4.55;;;8.70;99.90;;;;;;5076021;28;20033;-87
2023/12/12 07:14:09;;;;;;;11.05;5.63;;;8.70;99.90;;;;;;5068898;28;20020;-85
2023/12/12 07:16:35;;;;;;;9.63;5.63;;;8.70;99.90;;;;;;5069589;28;20031;-85
2023/12/12 07:19:00;;;;;;;8.15;4.65;;;8.60;99.90;;;;;;5075606;28;20036;-87
2023/12/12 07:21:26;;;;;;;9.50;5.55;;;8.60;99.90;;;;;;5077234;28;20032;-85
2023/12/12 07:23:53;;;;;;;10.80;5.68;;;8.60;99.90;;;;;;5075540;28;20033;-85
2023/12/12 07:26:21;;;;;;;10.43;5.93;;;8.60;99.90;;;;;;5074283;28;20013;-87
2023/12/12 07:28:46;;;;;;;10.95;4.97;;;8.60;99.90;;;;;;5068072;28;20016;-87
2023/12/12 07:31:13;;;;;;;13.45;5.40;;;8.70;99.90;;;;;;5072068;28;20070;-88
2023/12/12 07:33:40;;;;;;;8.45;4.68;;;8.70;99.90;;;;;;5070034;28;20032;-87
2023/12/12 07:36:06;;;;;;;9.05;4.88;;;8.60;99.90;;;;;;5075362;28;20078;-84
2023/12/12 07:38:31;;;;;;;6.93;4.53;;;8.70;99.90;;;;;;5073852;28;20512;-85
2023/12/12 07:40:59;;;;;;;8.30;4.65;;;8.70;99.90;;;;;;5072363;28;20032;-86
2023/12/12 07:43:24;;;;;;;11.52;5.63;;;8.70;99.90;;;;;;5072232;28;20052;-85
2023/12/12 07:45:50;;;;;;;8.55;5.15;;;8.70;99.90;;;;;;5077626;28;20059;-88
2023/12/12 07:48:16;;;;;;;8.85;4.90;;;8.60;99.90;;;;;;5074294;28;20070;-85
2023/12/12 07:50:42;;;;;;;9.10;5.07;;;8.70;99.90;;;;;;5075586;28;20069;-88
2023/12/12 07:53:07;;;;;;;9.90;5.68;;;8.70;99.90;;;;;;5075794;28;20013;-86
2023/12/12 07:55:33;;;;;;;10.10;6.03;;;8.70;99.90;;;;;;5072400;28;20052;-87
2023/12/12 07:57:58;;;;;;;9.45;5.40;;;8.70;99.90;;;;;;5071518;28;20017;-86
2023/12/12 08:00:26;;;;;;;10.63;5.68;;;8.70;99.90;;;;;;5075916;28;20024;-85
2023/12/12 08:02:52;;;;;;;14.50;6.50;;;8.70;99.90;;;;;;5074167;28;20023;-85
2023/12/12 08:05:17;;;;;;;13.05;6.70;;;8.70;99.90;;;;;;5074748;28;20501;-85
2023/12/12 08:07:43;;;;;;;14.02;6.40;;;8.70;99.90;;;;;;5067996;28;20019;-86
2023/12/12 08:10:09;;;;;;;8.20;4.95;;;8.60;99.90;;;;;;5064114;28;20017;-85
2023/12/12 08:12:34;;;;;;;8.93;5.60;;;8.70;99.90;;;;;;5077789;28;20496;-85
2023/12/12 08:15:00;;;;;;;11.25;5.32;;;8.70;99.90;;;;;;5072172;28;20024;-85
2023/12/12 08:17:26;;;;;;;8.40;4.22;;;8.70;99.90;;;;;;5071726;28;20069;-85
2023/12/12 08:19:52;;;;;;;7.57;4.75;;;8.70;99.90;;;;;;5070824;28;20029;-85
2023/12/12 08:22:17;;;;;;;10.55;5.15;;;8.70;99.90;;;;;;5074436;28;20074;-87
2023/12/12 08:24:45;;;;;;;8.40;4.70;;;8.70;99.90;;;;;;5072198;28;20048;-85
2023/12/12 08:27:12;;;;;;;6.07;4.25;;;8.70;99.90;;;;;;5067052;28;20075;-85
2023/12/12 08:29:38;;;;;;;7.28;4.10;;;8.70;99.90;;;;;;5078561;28;20505;-85
2023/12/12 08:32:03;;;;;;;5.78;3.70;;;8.70;99.90;;;;;;5074484;28;20029;-85
2023/12/12 08:34:33;;;;;;;5.75;3.55;;;8.70;99.90;;;;;;5071914;28;20567;-86
2023/12/12 08:36:59;;;;;;;6.13;3.90;;;8.70;99.90;;;;;;5076319;28;20020;-86
2023/12/12 08:39:25;;;;;;;6.90;3.45;;;8.70;99.90;;;;;;5079271;28;20448;-85
2023/12/12 08:41:50;;;;;;;5.72;2.92;;;8.70;99.90;;;;;;5071044;28;20070;-85
2023/12/12 08:44:16;;;;;;;6.07;3.22;;;8.70;99.90;;;;;;5072580;28;20501;-86
2023/12/12 08:46:43;;;;;;;4.72;3.30;;;8.70;99.90;;;;;;5077035;28;20036;-85
2023/12/12 08:49:09;;;;;;;5.10;3.13;;;8.70;99.90;;;;;;5075624;28;20017;-84
2023/12/12 08:51:35;;;;;;;14.68;3.55;;;8.70;99.90;;;;;;5076905;28;20046;-85
2023/12/12 08:54:03;;;;;;;4.63;2.97;;;8.70;99.90;;;;;;5073994;28;20073;-85
2023/12/12 08:56:29;;;;;;;4.75;2.85;;;8.70;99.90;;;;;;5077819;28;20100;-85
2023/12/12 08:58:55;;;;;;;3.70;3.00;;;8.70;99.90;;;;;;5070611;28;20115;-86
2023/12/12 09:01:20;;;;;;;5.68;3.35;;;8.70;99.90;;;;;;5071813;28;20104;-85
2023/12/12 09:03:46;;;;;;;3.97;2.75;;;8.70;99.90;;;;;;5074503;28;20497;-87
2023/12/12 09:06:12;;;;;;;3.70;2.95;;;8.70;99.90;;;;;;5078290;28;20043;-85
2023/12/12 09:08:42;;;;;;;7.15;3.45;;;8.70;99.90;;;;;;5077929;28;20028;-84
2023/12/12 09:11:10;;;;;;;4.05;2.90;;;8.70;99.90;;;;;;5077239;28;20013;-86
2023/12/12 09:13:37;;;;;;;4.53;3.08;;;8.70;99.90;;;;;;5074637;28;20028;-84
2023/12/12 09:16:02;;;;;;;4.25;3.03;;;8.70;99.90;;;;;;5074804;28;20077;-86
2023/12/12 09:18:28;;;;;;;5.70;3.08;;;8.70;99.90;;;;;;5066238;28;20493;-84
2023/12/12 09:20:53;;;;;;;5.15;3.15;;;8.70;99.90;;;;;;5069930;28;20028;-85
2023/12/12 09:23:20;;;;;;;3.85;3.00;;;8.70;99.90;;;;;;5072407;28;20117;-85
2023/12/12 09:25:46;;;;;;;5.30;3.38;;;8.70;99.90;;;;;;5066604;28;20031;-85
2023/12/12 09:28:11;;;;;;;6.10;3.40;;;8.70;99.90;;;;;;5065857;28;20024;-85
2023/12/12 09:30:37;;;;;;;10.13;4.00;;;8.70;99.90;;;;;;5072501;28;20031;-85
2023/12/12 09:33:03;;;;;;;7.57;3.40;;;8.70;99.90;;;;;;5076554;28;20502;-85
2023/12/12 09:35:28;;;;;;;4.63;3.47;;;8.70;99.90;;;;;;5074047;28;20048;-85
2023/12/12 09:37:54;;;;;;;5.60;3.58;;;8.70;99.90;;;;;;5073557;28;20021;-85
2023/12/12 09:40:20;;;;;;;7.25;3.88;;;8.70;99.90;;;;;;5076169;28;20024;-86
2023/12/12 09:42:48;;;;;;;4.82;3.63;;;8.70;99.90;;;;;;5075863;28;20051;-86
2023/12/12 09:45:15;;;;;;;7.05;4.00;;;8.70;99.90;;;;;;5073405;28;20624;-85
2023/12/12 09:47:45;;;;;;;5.22;3.75;;;8.70;99.90;;;;;;5073714;28;20035;-85
2023/12/12 09:50:12;;;;;;;5.50;3.35;;;8.70;99.90;;;;;;5071412;28;20441;-85
2023/12/12 09:52:38;;;;;;;5.70;3.70;;;8.70;99.90;;;;;;5072407;28;20032;-86
2023/12/12 09:55:05;;;;;;;4.93;3.65;;;8.70;99.90;;;;;;5075232;28;20739;-85
2023/12/12 09:57:32;;;;;;;5.55;3.85;;;8.70;99.90;;;;;;5076668;28;20020;-86
2023/12/12 09:59:58;;;;;;;5.85;3.33;;;8.70;99.90;;;;;;5074895;28;20111;-84
2023/12/12 10:02:30;;;;;;;5.70;3.72;;;8.70;99.90;;;;;;5075919;28;20027;-86
2023/12/12 10:04:57;;;;;;;5.97;3.40;;;8.70;99.90;;;;;;5073995;28;20016;-85
2023/12/12 10:07:24;;;;;;;6.55;3.05;;;8.70;99.90;;;;;;5079131;28;20693;-85
2023/12/12 10:09:50;;;;;;;5.22;3.00;;;8.80;99.90;;;;;;5076084;28;20024;-89
2023/12/12 10:12:16;;;;;;;4.47;3.08;;;8.70;99.90;;;;;;5080014;28;20162;-86
2023/12/12 10:14:47;;;;;;;4.03;3.05;;;8.70;99.90;;;;;;5071744;28;20029;-87
2023/12/12 10:17:13;;;;;;;4.28;3.13;;;8.70;99.90;;;;;;5075412;28;20052;-89
2023/12/12 10:19:39;;;;;;;5.90;2.97;;;8.70;99.90;;;;;;5073420;28;20036;-86
2023/12/12 10:22:06;;;;;;;4.05;2.92;;;8.70;99.90;;;;;;5075133;28;20032;-85
2023/12/12 10:24:32;;;;;;;4.40;3.10;;;8.70;99.90;;;;;;5072045;28;20028;-85
2023/12/12 10:26:58;;;;;;;4.25;3.03;;;8.70;99.90;;;;;;5074509;28;20394;-85
2023/12/12 10:29:24;;;;;;;5.60;3.20;;;8.70;99.90;;;;;;5073587;28;20024;-85
2023/12/12 10:31:51;;;;;;;5.18;3.10;;;8.80;99.90;;;;;;5073927;28;20048;-85
2023/12/12 10:34:23;;;;;;;4.00;2.60;;;8.70;99.90;;;;;;5071500;28;20111;-84
2023/12/12 10:36:49;;;;;;;3.50;2.63;;;8.70;99.90;;;;;;5077211;28;20027;-85
2023/12/12 10:39:15;;;;;;;4.43;2.47;;;8.80;99.90;;;;;;5079291;28;20024;-85
2023/12/12 10:41:57;;;;;;;3.45;2.90;;;8.70;99.90;;;;;;5074647;28;20494;-86
2023/12/12 10:44:33;;;;;;;3.85;2.60;;;8.70;99.90;;;;;;5068977;28;20077;-85
2023/12/12 10:47:02;;;;;;;3.63;2.45;;;8.70;99.90;;;;;;5072506;28;20028;-86
2023/12/12 10:49:32;;;;;;;4.10;2.42;;;8.80;99.90;;;;;;5072551;28;20164;-85
2023/12/12 10:52:06;;;;;;;3.47;2.30;;;8.80;99.90;;;;;;5067620;28;20549;-84
2023/12/12 10:54:36;;;;;;;8.95;2.65;;;8.70;99.90;;;;;;5066784;28;20631;-85
2023/12/12 10:57:02;;;;;;;;;;;8.70;99.90;;;;;;5073292;28;20024;-85
2023/12/12 10:59:29;;;;;;;3.55;2.10;;;8.80;99.90;;;;;;5078504;28;19993;-85
2023/12/12 11:01:56;;;;;;;4.43;2.85;;;8.70;99.90;;;;;;5067475;28;20036;-85
2023/12/12 11:04:24;;;;;;;3.33;2.75;;;8.70;99.90;;;;;;5073828;28;20818;-86
2023/12/12 11:06:51;;;;;;;4.22;2.55;;;8.70;99.90;;;;;;5075038;28;20039;-86
2023/12/12 11:09:18;;;;;;;4.15;2.67;;;8.80;99.90;;;;;;5075474;28;20120;-85
2023/12/12 11:11:48;;;;;;;2.95;2.17;;;8.80;99.90;;;;;;5069458;28;20031;-86
2023/12/12 11:14:16;;;;;;;3.92;2.40;;;8.80;99.90;;;;;;5071594;28;20035;-85
2023/12/12 11:16:48;;;;;;;4.43;2.90;;;8.80;99.90;;;;;;5071895;28;20097;-85
2023/12/12 11:19:17;;;;;;;4.90;3.05;;;8.80;99.90;;;;;;5066628;28;20028;-85
2023/12/12 11:21:49;;;;;;;4.50;2.80;;;8.80;99.90;;;;;;5074192;28;20032;-85
2023/12/12 11:24:16;;;;;;;4.82;3.25;;;8.80;99.90;;;;;;5061864;28;20029;-85
2023/12/12 11:26:44;;;;;;;3.40;2.80;;;8.80;99.90;;;;;;5070144;28;20035;-86
2023/12/12 11:29:15;;;;;;;4.50;3.08;;;8.80;99.90;;;;;;5068587;28;20564;-85
2023/12/12 11:31:56;;;;;;;5.18;3.20;;;8.80;99.90;;;;;;5073059;28;20032;-85
2023/12/12 11:34:24;;;;;;;4.13;2.70;;;8.80;99.90;;;;;;5067951;28;20508;-85
2023/12/12 11:36:57;;;;;;;4.85;2.85;;;8.80;99.90;;;;;;5071312;28;20058;-85
2023/12/12 11:39:34;;;;;;;4.45;3.10;;;8.80;99.90;;;;;;5071861;28;20017;-84
2023/12/12 11:42:02;;;;;;;5.88;3.22;;;8.80;99.90;;;;;;5070314;28;20024;-84
2023/12/12 11:44:41;;;;;;;6.38;2.97;;;8.80;99.90;;;;;;5073412;28;20031;-85
2023/12/12 11:47:15;;;;;;;4.65;3.28;;;8.80;99.90;;;;;;5067023;28;20029;-85
2023/12/12 11:49:41;;;;;;;3.30;2.17;;;8.80;99.90;;;;;;5065820;28;20017;-86
2023/12/12 11:52:07;;;;;;;3.00;2.22;;;8.80;99.90;;;;;;5068580;28;20024;-85
2023/12/12 11:54:33;;;;;;;3.75;2.40;;;8.80;99.90;;;;;;5068152;28;20029;-89
2023/12/12 11:57:00;;;;;;;3.30;2.53;;;8.80;99.90;;;;;;5071941;28;20469;-89
2023/12/12 11:59:28;;;;;;;2.97;2.25;;;8.80;99.90;;;;;;5068948;28;20020;-89
2023/12/12 12:01:55;;;;;;;2.88;2.47;;;8.90;99.90;;;;;;5067897;28;20020;-88
2023/12/12 12:04:21;;;;;;;3.28;2.33;;;8.80;99.90;;;;;;5068189;28;20017;-88
2023/12/12 12:06:50;;;;;;;3.50;2.33;;;8.80;99.90;;;;;;5075585;28;20162;-85
2023/12/12 12:09:16;;;;;;;2.90;2.13;;;8.80;99.90;;;;;;5072089;28;20021;-85
2023/12/12 12:11:51;;;;;;;3.10;2.00;;;8.80;99.90;;;;;;5068681;28;20027;-85
2023/12/12 12:14:22;;;;;;;2.47;2.08;;;8.80;99.90;;;;;;5067854;28;20359;-85
2023/12/12 12:16:52;;;;;;;2.90;1.90;;;8.80;99.90;;;;;;5070772;28;20502;-85
2023/12/12 12:19:44;;;;;;;3.00;2.00;;;8.80;99.90;;;;;;5078839;28;20662;-85
2023/12/12 12:22:11;;;;;;;2.92;2.00;;;8.90;99.90;;;;;;5065705;28;20045;-85
2023/12/12 12:24:42;;;;;;;2.75;1.98;;;8.80;99.90;;;;;;5067066;28;20116;-85
2023/12/12 12:27:08;;;;;;;2.53;2.30;;;8.80;99.90;;;;;;5068886;28;20013;-85
2023/12/12 12:29:33;;;;;;;3.53;2.10;;;8.80;99.90;;;;;;5063649;28;20024;-86
2023/12/12 12:32:16;;;;;;;2.63;2.20;;;8.80;99.90;;;;;;5067960;28;20024;-85
2023/12/12 12:34:43;;;;;;;2.72;2.25;;;8.80;99.90;;;;;;5073569;28;20108;-84
2023/12/12 12:37:32;;;;;;;3.67;2.45;;;8.80;99.90;;;;;;5074936;28;20032;-85
2023/12/12 12:39:57;;;;;;;2.70;2.00;;;8.80;99.90;;;;;;5066270;28;20059;-84
2023/12/12 12:42:32;;;;;;;3.70;2.08;;;8.80;99.90;;;;;;5074980;28;20474;-85
2023/12/12 12:44:58;;;;;;;2.55;2.22;;;8.80;99.90;;;;;;5071259;28;20028;-84
2023/12/12 12:47:24;;;;;;;2.95;2.10;;;8.90;99.90;;;;;;5068230;28;20047;-85
2023/12/12 12:49:50;;;;;;;2.35;2.13;;;8.80;99.90;;;;;;5075637;28;20490;-85
2023/12/12 12:52:15;;;;;;;2.78;2.17;;;8.80;99.90;;;;;;5068063;28;20029;-86